Time;durP1;ratioP1;P1;durP2;ratioP2;P2;SDS_P1;SDS_P2;PMS_P1;PMS_P2;Temp;Humidity;BMP_temperature;BMP_pressure;BME280_temperature;BME280_humidity;BME280_pressure;Samples;Min_cycle;Max_cycle;Signal;HPM_P1;HPM_P2
2021/06/14 06:25:02;;;;;;;9.57;4.45;;;17.10;99.90;;;;;;3910447;23;20073;-88
2021/06/14 06:27:54;;;;;;;9.50;4.80;;;17.20;99.90;;;;;;1336567;23;20184;-88
2021/06/14 06:36:27;;;;;;;14.93;4.22;;;17.50;99.90;;;;;;3529983;40;20047;-90
2021/06/14 06:39:27;;;;;;;10.25;4.38;;;17.60;99.90;;;;;;3567949;23;20043;-85
2021/06/14 06:42:00;;;;;;;10.30;4.20;;;17.60;99.90;;;;;;3516295;40;20051;-86
2021/06/14 06:44:31;;;;;;;9.30;4.18;;;17.70;99.90;;;;;;3516562;40;20055;-88
2021/06/14 06:47:25;;;;;;;11.02;4.57;;;17.70;99.90;;;;;;3687664;23;20480;-91
2021/06/14 06:50:19;;;;;;;10.82;4.85;;;17.50;99.90;;;;;;3761917;23;20084;-91
2021/06/14 06:52:54;;;;;;;11.90;4.90;;;17.60;99.90;;;;;;3620613;23;20039;-91
2021/06/14 06:55:27;;;;;;;11.13;4.47;;;17.70;99.90;;;;;;1369076;23;20185;-89
2021/06/14 06:57:58;;;;;;;11.75;4.63;;;17.80;99.90;;;;;;3733646;23;20060;-92
2021/06/14 07:00:58;;;;;;;12.57;4.78;;;17.80;99.90;;;;;;3594428;23;20864;-88
2021/06/14 07:06:23;;;;;;;11.98;4.30;;;17.60;99.90;;;;;;3812400;23;20927;-91
2021/06/14 07:09:18;;;;;;;12.60;4.78;;;17.60;99.90;;;;;;3637634;23;20330;-88
2021/06/14 07:14:45;;;;;;;10.13;4.25;;;17.90;99.90;;;;;;3738833;23;20094;-95
2021/06/14 07:20:20;;;;;;;11.38;3.80;;;18.20;99.90;;;;;;3822968;23;20883;-88
2021/06/14 07:26:06;;;;;;;10.10;3.72;;;18.30;99.40;;;;;;3657918;23;20059;-89
2021/06/14 07:34:24;;;;;;;11.43;3.58;;;18.50;97.70;;;;;;3519770;40;20065;-87
2021/06/14 07:37:02;;;;;;;7.00;3.22;;;18.70;97.60;;;;;;3611986;23;20061;-88
2021/06/14 07:39:36;;;;;;;14.27;3.88;;;18.80;97.20;;;;;;3598309;23;20059;-90
2021/06/14 07:42:30;;;;;;;9.10;3.80;;;19.00;96.90;;;;;;3597097;23;20051;-89
2021/06/14 07:44:58;;;;;;;8.95;3.47;;;18.80;96.60;;;;;;3546588;40;20063;-89
2021/06/14 07:47:26;;;;;;;12.98;3.40;;;18.80;96.30;;;;;;3575532;23;20039;-88
2021/06/14 07:49:58;;;;;;;9.02;3.50;;;18.80;95.80;;;;;;3568585;23;20051;-88
2021/06/14 07:52:52;;;;;;;12.82;3.97;;;18.90;95.30;;;;;;3664164;23;20393;-88
2021/06/14 07:55:20;;;;;;;9.20;3.53;;;19.00;94.60;;;;;;3698218;23;20994;-87
2021/06/14 08:01:09;;;;;;;9.77;3.78;;;18.90;93.80;;;;;;3657364;23;20144;-85
2021/06/14 08:06:30;;;;;;;10.95;4.25;;;19.10;94.20;;;;;;3522695;40;20060;-87
2021/06/14 08:09:01;;;;;;;9.30;3.72;;;19.20;93.90;;;;;;3504786;40;20035;-86
2021/06/14 08:14:21;;;;;;;12.93;4.18;;;19.50;92.90;;;;;;1371313;23;20308;31
2021/06/14 08:16:51;;;;;;;10.30;3.60;;;19.50;92.90;;;;;;3528453;40;20048;-88
2021/06/14 08:19:27;;;;;;;10.73;4.20;;;19.60;92.50;;;;;;3501952;40;20037;-86
2021/06/14 08:22:10;;;;;;;8.73;3.40;;;19.70;91.90;;;;;;3492899;41;20057;-88
2021/06/14 08:27:25;;;;;;;12.25;4.30;;;19.60;88.60;;;;;;3484957;41;20072;-85
2021/06/14 08:29:58;;;;;;;10.77;3.72;;;19.70;89.90;;;;;;3494086;41;20037;-85
2021/06/14 08:32:30;;;;;;;13.55;3.90;;;19.40;89.70;;;;;;3504937;41;20033;-86
2021/06/14 08:34:58;;;;;;;12.43;3.40;;;19.40;90.30;;;;;;3508518;41;20053;-85
2021/06/14 08:37:28;;;;;;;8.07;3.60;;;19.50;87.90;;;;;;3496256;41;20069;-86
2021/06/14 08:39:55;;;;;;;8.27;3.03;;;19.60;85.40;;;;;;3500358;41;20076;-87
2021/06/14 08:42:24;;;;;;;9.43;3.47;;;19.60;86.30;;;;;;3499433;41;20084;-86
2021/06/14 08:44:57;;;;;;;7.32;2.80;;;19.80;86.40;;;;;;3493948;41;20145;-86
2021/06/14 08:47:30;;;;;;;13.25;4.22;;;20.00;82.40;;;;;;3499009;41;20056;-86
2021/06/14 08:49:59;;;;;;;10.15;3.22;;;20.10;78.60;;;;;;3489316;41;20081;-88
2021/06/14 08:52:28;;;;;;;8.32;2.65;;;19.90;78.80;;;;;;3488398;41;20069;-85
2021/06/14 08:54:57;;;;;;;9.73;3.28;;;19.90;78.20;;;;;;3482476;41;20096;-78
2021/06/14 08:57:27;;;;;;;8.52;2.55;;;20.10;78.20;;;;;;3512511;40;20303;-79
2021/06/14 08:59:57;;;;;;;10.40;3.53;;;20.30;75.40;;;;;;3511581;40;20092;-78
2021/06/14 09:02:28;;;;;;;8.75;3.17;;;20.50;73.90;;;;;;3521672;40;20095;-79
2021/06/14 09:04:56;;;;;;;5.35;2.47;;;20.60;73.50;;;;;;3513976;40;20075;-79
2021/06/14 09:07:31;;;;;;;6.10;2.92;;;20.60;71.10;;;;;;3505595;40;20306;-77
2021/06/14 09:09:59;;;;;;;11.60;3.17;;;20.50;71.50;;;;;;3512030;40;20076;-81
2021/06/14 09:12:39;;;;;;;10.82;3.05;;;20.20;74.60;;;;;;3512167;40;20075;-80
2021/06/14 09:15:10;;;;;;;8.40;3.43;;;19.90;76.40;;;;;;3510906;40;20071;-80
2021/06/14 09:17:38;;;;;;;11.93;3.42;;;19.90;77.30;;;;;;3515148;40;20330;-78
2021/06/14 09:20:14;;;;;;;9.48;3.60;;;20.20;77.60;;;;;;3515016;40;20095;-78
2021/06/14 09:22:43;;;;;;;14.57;3.97;;;20.50;75.30;;;;;;3529613;40;20067;-80
2021/06/14 09:25:15;;;;;;;8.82;3.42;;;20.40;75.00;;;;;;3532239;40;20074;-80
2021/06/14 09:27:46;;;;;;;9.73;3.35;;;20.50;74.50;;;;;;3531736;40;20094;-79
2021/06/14 09:30:16;;;;;;;8.35;3.17;;;20.50;73.10;;;;;;3523005;40;20065;-79
2021/06/14 09:32:54;;;;;;;9.70;3.15;;;20.60;72.50;;;;;;3513632;40;20122;-80
2021/06/14 09:35:23;;;;;;;8.25;3.25;;;20.40;72.80;;;;;;3531296;40;20075;-79
2021/06/14 09:38:15;;;;;;;9.65;3.40;;;20.50;73.20;;;;;;3530577;40;20091;-80
2021/06/14 09:40:47;;;;;;;11.35;4.15;;;20.60;72.00;;;;;;3528280;40;20087;-79
2021/06/14 09:43:27;;;;;;;9.13;3.30;;;20.70;71.80;;;;;;3516329;40;21175;-81
2021/06/14 09:45:55;;;;;;;8.25;3.17;;;20.50;71.70;;;;;;3526609;40;20087;-81
2021/06/14 09:48:26;;;;;;;11.57;3.28;;;20.40;73.10;;;;;;3523748;40;20102;-81
2021/06/14 09:50:59;;;;;;;6.57;2.97;;;20.50;73.50;;;;;;3522894;40;20071;-79
2021/06/14 09:53:35;;;;;;;7.13;2.92;;;20.60;73.70;;;;;;3519196;40;20516;-83
2021/06/14 09:56:15;;;;;;;11.85;3.80;;;20.80;73.50;;;;;;3513163;40;20063;-82
2021/06/14 09:58:43;;;;;;;9.43;3.55;;;21.20;72.50;;;;;;3514279;40;20309;-82
2021/06/14 10:01:14;;;;;;;6.38;3.20;;;21.00;71.80;;;;;;3523638;40;20067;-80
2021/06/14 10:03:44;;;;;;;11.82;4.40;;;20.80;72.30;;;;;;3531061;40;20071;-80
2021/06/14 10:06:26;;;;;;;11.10;3.58;;;21.00;72.70;;;;;;3527672;40;20098;-81
2021/06/14 10:09:09;;;;;;;8.75;3.15;;;21.00;72.30;;;;;;3514544;40;20087;-84
2021/06/14 10:11:38;;;;;;;8.82;3.33;;;20.90;72.20;;;;;;3523255;40;20067;-80
2021/06/14 10:14:13;;;;;;;9.68;3.60;;;21.50;71.00;;;;;;3533263;40;20091;-83
2021/06/14 10:16:42;;;;;;;9.32;3.13;;;22.40;69.10;;;;;;3524055;40;20163;-80
2021/06/14 10:19:11;;;;;;;7.95;3.67;;;23.50;66.20;;;;;;3524470;40;20068;-79
2021/06/14 10:21:42;;;;;;;8.43;2.72;;;24.60;63.30;;;;;;3531189;40;20426;-80
2021/06/14 10:24:15;;;;;;;7.50;2.78;;;25.50;60.40;;;;;;3522777;40;20306;-79
2021/06/14 10:26:44;;;;;;;8.38;2.72;;;26.30;57.80;;;;;;3514074;40;20130;-78
2021/06/14 10:29:14;;;;;;;5.55;2.50;;;27.00;54.80;;;;;;3514300;40;20306;-80
2021/06/14 10:31:44;;;;;;;8.52;2.83;;;27.70;52.50;;;;;;3520805;40;20087;-79
2021/06/14 10:34:15;;;;;;;5.22;2.33;;;28.40;50.50;;;;;;3529645;40;20092;-79
2021/06/14 10:36:47;;;;;;;8.55;2.70;;;28.60;48.90;;;;;;3521087;40;20075;-80
2021/06/14 10:39:17;;;;;;;8.00;2.65;;;29.00;47.80;;;;;;3521607;40;20098;-79
2021/06/14 10:41:47;;;;;;;10.30;2.85;;;29.20;47.40;;;;;;3521698;40;20073;-79
2021/06/14 10:44:16;;;;;;;7.75;3.17;;;29.10;47.30;;;;;;3519463;40;20087;-80
2021/06/14 10:46:47;;;;;;;6.03;2.72;;;29.30;47.10;;;;;;3530351;40;20087;-80
2021/06/14 10:49:16;;;;;;;6.82;3.95;;;29.70;46.10;;;;;;3520241;40;20091;-80
2021/06/14 10:51:56;;;;;;;7.70;2.75;;;30.40;45.20;;;;;;3521403;40;20083;-80
2021/06/14 10:54:41;;;;;;;6.10;2.55;;;31.20;43.90;;;;;;3526416;40;20075;-81
2021/06/14 10:57:14;;;;;;;9.20;2.83;;;31.70;42.60;;;;;;3530530;40;20071;-80
2021/06/14 10:59:46;;;;;;;7.47;2.50;;;32.00;42.10;;;;;;3513524;40;20325;-80
2021/06/14 11:02:18;;;;;;;6.80;2.70;;;32.30;41.10;;;;;;3520361;40;20161;-80
2021/06/14 11:04:47;;;;;;;6.55;3.15;;;33.00;40.60;;;;;;3520569;40;20083;-84
2021/06/14 11:07:18;;;;;;;6.97;2.55;;;33.70;40.20;;;;;;3521596;40;20087;-83
2021/06/14 11:09:49;;;;;;;10.13;3.03;;;34.90;38.40;;;;;;3520847;40;20306;-82
2021/06/14 11:12:26;;;;;;;6.30;2.65;;;34.80;37.50;;;;;;3522406;40;20087;-82
2021/06/14 11:14:54;;;;;;;7.20;2.70;;;33.00;37.40;;;;;;3518427;40;20383;-82
2021/06/14 11:17:27;;;;;;;5.30;2.72;;;32.20;39.10;;;;;;3526371;40;20346;-81
2021/06/14 11:20:08;;;;;;;7.22;2.75;;;32.10;39.70;;;;;;3527223;40;20099;-83
2021/06/14 11:22:38;;;;;;;6.47;2.70;;;33.30;38.80;;;;;;3516928;40;20071;-85
2021/06/14 11:25:21;;;;;;;5.03;2.50;;;34.00;38.00;;;;;;3529673;40;20143;-81
2021/06/14 11:27:50;;;;;;;6.13;2.67;;;34.60;37.60;;;;;;3510828;40;20071;-83
2021/06/14 11:30:23;;;;;;;6.55;2.72;;;35.40;37.20;;;;;;3529893;40;20280;-83
2021/06/14 11:32:51;;;;;;;8.00;3.03;;;36.10;36.20;;;;;;3530859;40;20419;-83
2021/06/14 11:35:22;;;;;;;7.13;2.83;;;37.50;35.60;;;;;;3522295;40;20091;-82
2021/06/14 11:37:53;;;;;;;7.15;3.17;;;37.40;34.90;;;;;;3521418;40;20455;-82
2021/06/14 11:40:28;;;;;;;8.77;2.30;;;37.70;34.70;;;;;;3513655;40;20079;-83
2021/06/14 11:43:08;;;;;;;7.75;3.13;;;38.20;34.50;;;;;;3514522;40;20075;-82
2021/06/14 11:45:38;;;;;;;5.60;2.17;;;38.40;34.10;;;;;;3511748;40;20248;-82
2021/06/14 11:48:19;;;;;;;6.53;2.63;;;38.90;33.40;;;;;;3512397;40;20110;-82
2021/06/14 11:50:47;;;;;;;7.50;2.60;;;39.40;33.20;;;;;;3523998;40;20109;-83
2021/06/14 11:53:17;;;;;;;4.25;2.35;;;40.10;33.40;;;;;;3524318;40;20064;-83
2021/06/14 11:55:47;;;;;;;6.35;2.60;;;40.00;32.30;;;;;;3529966;40;21124;-84
2021/06/14 11:58:15;;;;;;;8.77;3.22;;;36.90;33.70;;;;;;3503172;40;20059;-80
2021/06/14 12:00:45;;;;;;;11.68;3.25;;;35.50;34.80;;;;;;3527867;40;20071;-82
2021/06/14 12:03:18;;;;;;;6.68;3.15;;;35.10;35.90;;;;;;3530179;40;20084;-81
2021/06/14 12:05:49;;;;;;;6.93;2.65;;;36.20;35.30;;;;;;3529877;40;20098;-81
2021/06/14 12:08:19;;;;;;;7.15;2.92;;;37.10;35.00;;;;;;3531256;40;20076;-80
2021/06/14 12:10:51;;;;;;;7.82;2.85;;;38.00;34.40;;;;;;3521726;40;20087;-83
2021/06/14 12:13:22;;;;;;;7.55;3.03;;;38.60;33.60;;;;;;3520381;40;20086;-80
2021/06/14 12:15:52;;;;;;;7.00;2.60;;;38.90;33.50;;;;;;3507871;40;20067;-81
2021/06/14 12:18:21;;;;;;;8.90;2.80;;;39.50;33.30;;;;;;3530735;40;20083;-82
2021/06/14 12:20:54;;;;;;;7.32;3.10;;;39.00;33.50;;;;;;3522996;40;20060;-82
2021/06/14 12:23:23;;;;;;;7.43;2.90;;;39.50;32.90;;;;;;3517527;40;20067;-81
2021/06/14 12:25:53;;;;;;;8.25;2.60;;;40.00;32.70;;;;;;3531171;40;20059;-85
2021/06/14 12:28:22;;;;;;;7.22;3.05;;;40.00;32.40;;;;;;3513328;40;20095;-82
2021/06/14 12:30:59;;;;;;;8.25;2.80;;;40.70;32.00;;;;;;3527253;40;20087;-82
2021/06/14 12:33:29;;;;;;;7.93;2.85;;;40.30;31.90;;;;;;3517328;40;20075;-82
2021/06/14 12:35:58;;;;;;;6.38;3.00;;;36.40;34.20;;;;;;3520946;40;20091;-82
2021/06/14 12:38:30;;;;;;;10.40;3.17;;;33.20;38.20;;;;;;3530911;40;20135;-83
2021/06/14 12:41:02;;;;;;;7.60;2.90;;;33.40;38.10;;;;;;3514105;40;21281;-82
2021/06/14 12:43:31;;;;;;;8.90;3.10;;;34.20;37.80;;;;;;3513095;40;20099;-83
2021/06/14 12:46:01;;;;;;;8.63;2.65;;;35.50;36.50;;;;;;3522256;40;20045;-81
2021/06/14 12:48:29;;;;;;;9.65;3.47;;;37.30;35.80;;;;;;3521324;40;20083;-80
2021/06/14 12:51:00;;;;;;;5.82;2.72;;;38.40;34.50;;;;;;3520939;40;20099;-81
2021/06/14 12:53:29;;;;;;;9.73;2.65;;;38.00;34.50;;;;;;3513484;40;20075;-80
2021/06/14 12:56:02;;;;;;;8.38;2.45;;;37.70;34.50;;;;;;3529255;40;20095;-81
2021/06/14 12:58:38;;;;;;;7.90;3.30;;;38.10;34.80;;;;;;3521109;40;20095;-80
2021/06/14 13:01:10;;;;;;;9.48;2.42;;;37.80;34.00;;;;;;3521986;40;20147;-81
2021/06/14 13:03:40;;;;;;;9.18;2.58;;;38.40;34.30;;;;;;3513310;40;20410;-81
2021/06/14 13:06:08;;;;;;;7.55;2.80;;;39.20;34.00;;;;;;3519928;40;20581;-81
2021/06/14 13:08:45;;;;;;;6.63;3.08;;;40.30;33.40;;;;;;3529751;40;20097;-81
2021/06/14 13:11:15;;;;;;;6.82;3.03;;;41.30;32.40;;;;;;3520853;40;20064;-80
2021/06/14 13:13:47;;;;;;;9.90;3.75;;;41.20;32.00;;;;;;3529797;40;20311;-81
2021/06/14 13:16:21;;;;;;;8.07;2.90;;;40.80;32.00;;;;;;3527934;40;20080;-80
2021/06/14 13:18:56;;;;;;;6.25;2.70;;;40.80;32.40;;;;;;3510441;40;20091;-82
2021/06/14 13:21:37;;;;;;;8.93;3.33;;;41.10;32.40;;;;;;3529965;40;20082;-81
2021/06/14 13:27:06;;;;;;;9.40;3.03;;;41.50;31.80;;;;;;3512358;40;20071;-81
2021/06/14 13:29:35;;;;;;;11.25;2.70;;;40.20;31.70;;;;;;3511590;40;20111;-81
2021/06/14 13:32:18;;;;;;;7.63;2.58;;;38.50;33.00;;;;;;3511517;40;20035;-82
2021/06/14 13:34:54;;;;;;;8.52;3.13;;;37.30;33.60;;;;;;3511667;40;20094;-83
2021/06/14 13:37:37;;;;;;;7.22;2.80;;;35.20;35.50;;;;;;3531267;40;20110;-82
2021/06/14 13:40:09;;;;;;;10.45;2.72;;;35.70;35.60;;;;;;3517790;40;20064;-81
2021/06/14 13:42:45;;;;;;;6.15;2.33;;;36.40;35.20;;;;;;3527589;40;20401;-82
2021/06/14 13:45:17;;;;;;;8.45;2.50;;;37.20;33.80;;;;;;3525361;40;20076;-83
2021/06/14 13:47:46;;;;;;;8.32;2.30;;;35.30;35.20;;;;;;3505801;40;20161;-81
2021/06/14 13:50:14;;;;;;;5.93;2.63;;;36.10;35.50;;;;;;3515225;40;20082;-83
2021/06/14 13:52:45;;;;;;;8.45;2.50;;;37.80;34.20;;;;;;3514578;40;20067;-82
2021/06/14 13:55:15;;;;;;;6.18;2.90;;;38.50;33.40;;;;;;3525293;40;20493;-85
2021/06/14 13:58:01;;;;;;;6.45;2.47;;;39.70;32.40;;;;;;3522580;40;20067;-83
2021/06/14 14:00:29;;;;;;;8.60;2.72;;;39.20;32.50;;;;;;3507911;40;20292;-84
2021/06/14 14:02:57;;;;;;;5.95;2.35;;;40.00;32.30;;;;;;3522405;40;20095;-83
2021/06/14 14:05:31;;;;;;;6.70;2.47;;;41.10;31.70;;;;;;3522844;40;20078;-84
2021/06/14 14:08:01;;;;;;;9.50;2.22;;;42.40;30.90;;;;;;3521378;40;20438;-83
2021/06/14 14:10:30;;;;;;;6.63;2.20;;;43.40;30.00;;;;;;3506644;40;20071;-84
2021/06/14 14:13:00;;;;;;;7.03;2.95;;;41.80;29.90;;;;;;3506161;40;20067;-83
2021/06/14 14:15:28;;;;;;;7.13;2.67;;;41.00;31.20;;;;;;3506079;40;20098;-83
2021/06/14 14:17:59;;;;;;;8.40;2.92;;;40.90;31.20;;;;;;3526577;40;20079;-85
2021/06/14 14:20:27;;;;;;;10.35;2.33;;;40.50;31.30;;;;;;3518539;40;20083;-83
2021/06/14 14:22:55;;;;;;;7.70;2.38;;;40.40;31.10;;;;;;3523675;40;20159;-83
2021/06/14 14:25:23;;;;;;;7.43;2.10;;;40.50;31.30;;;;;;3513626;40;20064;-83
2021/06/14 14:27:52;;;;;;;8.18;2.53;;;39.80;31.60;;;;;;3518126;40;20106;-84
2021/06/14 14:30:31;;;;;;;6.80;2.40;;;39.90;31.50;;;;;;3522261;40;20079;-84
2021/06/14 14:33:04;;;;;;;4.50;2.22;;;39.30;31.90;;;;;;3512467;40;20031;-84
2021/06/14 14:35:52;;;;;;;5.60;2.38;;;40.20;31.70;;;;;;3518688;40;20084;-84
2021/06/14 14:38:20;;;;;;;5.40;2.10;;;41.10;31.00;;;;;;3516074;40;20071;-82
2021/06/14 14:40:49;;;;;;;6.43;2.20;;;37.90;31.80;;;;;;3521361;40;20055;-80
2021/06/14 14:43:16;;;;;;;;;;;36.30;33.90;;;;;;3530207;40;20147;-80
2021/06/14 14:45:45;;;;;;;7.65;2.30;;;37.20;33.80;;;;;;3521671;40;19948;-83
2021/06/14 14:48:16;;;;;;;8.10;2.58;;;37.70;32.70;;;;;;3513757;40;20086;-83
2021/06/14 14:50:46;;;;;;;5.03;2.30;;;37.40;33.30;;;;;;3522657;40;20067;-84
2021/06/14 14:53:18;;;;;;;10.45;2.53;;;37.80;32.80;;;;;;3524752;40;20099;-83
2021/06/14 14:55:46;;;;;;;7.18;2.20;;;37.60;32.90;;;;;;3527296;40;20079;-83
2021/06/14 14:58:17;;;;;;;7.15;3.00;;;38.20;32.40;;;;;;3523829;40;20063;-81
2021/06/14 15:00:51;;;;;;;4.38;2.10;;;39.00;32.10;;;;;;3522280;40;20095;-80
2021/06/14 15:03:43;;;;;;;7.38;2.40;;;39.00;31.60;;;;;;3523775;40;20067;-79
2021/06/14 15:09:19;;;;;;;6.70;2.05;;;38.60;31.80;;;;;;3513187;40;20091;-80
2021/06/14 15:12:28;;;;;;;4.88;2.03;;;37.90;32.10;;;;;;3506645;40;20391;-80
2021/06/14 15:18:53;;;;;;;5.80;2.10;;;36.20;33.20;;;;;;3443414;41;20110;-80
2021/06/14 15:21:22;;;;;;;6.50;2.13;;;34.40;35.30;;;;;;3453157;41;20300;-80
2021/06/14 15:23:52;;;;;;;8.90;2.50;;;35.40;34.80;;;;;;3436505;41;20087;-80
2021/06/14 15:26:23;;;;;;;5.65;2.05;;;36.00;34.30;;;;;;3449405;41;20391;-80
2021/06/14 15:31:56;;;;;;;7.75;2.13;;;38.00;32.60;;;;;;3453650;41;20071;-80
2021/06/14 15:34:27;;;;;;;;;;;38.60;32.00;;;;;;3438153;41;20342;-81
2021/06/14 15:49:06;;;;;;;6.82;2.08;;;34.40;34.70;;;;;;3415177;42;20455;-83
2021/06/14 15:51:40;;;;;;;7.18;2.72;;;33.50;35.50;;;;;;3416440;42;20096;-80
2021/06/14 15:54:34;;;;;;;6.78;2.10;;;33.70;36.00;;;;;;3409255;42;20041;-81
2021/06/14 15:57:43;;;;;;;5.47;1.55;;;34.50;35.20;;;;;;3444350;41;20072;-80
2021/06/14 16:00:13;;;;;;;5.40;1.90;;;34.60;34.70;;;;;;3438475;41;20095;-79
2021/06/14 16:02:41;;;;;;;5.70;2.17;;;35.30;34.80;;;;;;3444013;41;20428;-78
2021/06/14 16:05:14;;;;;;;4.57;1.73;;;36.70;33.60;;;;;;3425470;41;20140;-79
2021/06/14 16:07:47;;;;;;;5.90;1.80;;;37.20;32.60;;;;;;3438780;41;20381;-79
2021/06/14 16:10:19;;;;;;;6.60;2.13;;;35.30;34.10;;;;;;3425107;41;20082;-78
2021/06/14 16:12:49;;;;;;;7.32;2.08;;;33.30;35.90;;;;;;3440426;41;20083;-79
2021/06/14 16:15:21;;;;;;;6.65;2.10;;;33.90;35.30;;;;;;3427316;41;20080;-81
2021/06/14 16:17:53;;;;;;;6.13;2.00;;;33.20;35.90;;;;;;3435761;41;20102;-78
2021/06/14 16:20:22;;;;;;;6.35;2.15;;;32.80;36.30;;;;;;3455591;41;20117;-78
2021/06/14 16:22:54;;;;;;;6.10;1.48;;;33.00;35.80;;;;;;3481834;41;20409;-79
2021/06/14 16:25:23;;;;;;;4.65;1.92;;;32.60;36.10;;;;;;3483996;41;20089;-80
2021/06/14 16:30:46;;;;;;;6.97;2.30;;;34.70;34.70;;;;;;3489487;41;20077;-78
2021/06/14 16:33:14;;;;;;;10.80;2.28;;;34.90;34.40;;;;;;3491317;41;20120;-79
2021/06/14 16:35:44;;;;;;;6.10;2.08;;;35.70;34.10;;;;;;3483270;41;20073;-80
2021/06/14 16:38:20;;;;;;;10.85;2.33;;;35.60;33.60;;;;;;3474976;41;20096;-80
2021/06/14 16:40:54;;;;;;;6.90;1.90;;;34.40;34.90;;;;;;3482742;41;20096;-81
2021/06/14 16:44:14;;;;;;;7.90;1.95;;;34.30;35.00;;;;;;3481016;41;20073;-81
2021/06/14 16:47:06;;;;;;;5.65;2.67;;;35.20;34.30;;;;;;3490867;40;20291;-81
2021/06/14 16:49:33;;;;;;;5.70;2.08;;;36.50;33.50;;;;;;3511231;40;20279;-79
2021/06/14 16:52:03;;;;;;;5.40;2.42;;;37.10;32.90;;;;;;3519179;40;20079;-81
2021/06/14 16:54:37;;;;;;;5.65;2.03;;;35.30;33.70;;;;;;3520001;40;20091;-80
2021/06/14 16:57:05;;;;;;;6.53;1.92;;;33.90;35.50;;;;;;3518869;40;20046;-82
2021/06/14 16:59:33;;;;;;;;;;;32.50;36.90;;;;;;3520196;40;20068;-83
2021/06/14 17:02:02;;;;;;;8.52;2.38;;;33.50;36.60;;;;;;3524948;40;19979;-84
2021/06/14 17:04:32;;;;;;;7.72;2.25;;;34.50;35.40;;;;;;3497482;40;20051;-85
2021/06/14 17:07:00;;;;;;;6.00;2.30;;;34.90;35.00;;;;;;3514103;40;20086;-81
2021/06/14 17:09:28;;;;;;;5.60;2.15;;;35.10;34.60;;;;;;3514452;40;20063;-82
2021/06/14 17:11:58;;;;;;;8.05;2.45;;;34.60;35.10;;;;;;3513641;40;20133;-80
2021/06/14 17:14:26;;;;;;;5.47;2.33;;;33.10;36.40;;;;;;3528395;40;20307;-81
2021/06/14 17:16:54;;;;;;;6.35;2.28;;;31.50;38.80;;;;;;3513601;40;20072;-78
2021/06/14 17:19:22;;;;;;;5.95;2.00;;;30.10;40.40;;;;;;3515818;40;20079;-79
2021/06/14 17:21:52;;;;;;;7.72;2.13;;;29.50;41.30;;;;;;3523061;40;20087;-79
2021/06/14 17:24:20;;;;;;;5.93;2.22;;;29.10;41.80;;;;;;3528423;40;20035;-80
2021/06/14 17:26:48;;;;;;;6.38;2.05;;;28.80;42.20;;;;;;3518401;40;20076;-80
2021/06/14 17:29:20;;;;;;;5.88;2.38;;;28.60;42.80;;;;;;3524405;40;20067;-79
2021/06/14 17:31:48;;;;;;;4.90;2.40;;;28.30;42.90;;;;;;3523824;40;20091;-78
2021/06/14 17:34:18;;;;;;;9.98;2.75;;;28.00;43.60;;;;;;3531675;40;20063;-79
2021/06/14 17:36:46;;;;;;;7.40;2.70;;;28.00;43.30;;;;;;3515398;40;20414;-79
2021/06/14 17:39:14;;;;;;;4.72;2.00;;;27.80;43.50;;;;;;3514276;40;20284;-81
2021/06/14 17:41:42;;;;;;;4.20;1.90;;;27.70;44.10;;;;;;3523250;40;20063;-79
2021/06/14 17:44:10;;;;;;;9.82;2.28;;;27.50;44.00;;;;;;3522794;40;20090;-80
2021/06/14 17:46:39;;;;;;;7.20;2.22;;;27.20;45.20;;;;;;3522662;40;20151;-80
2021/06/14 17:49:07;;;;;;;6.13;2.13;;;26.90;45.90;;;;;;3521422;40;20087;-79
2021/06/14 17:51:36;;;;;;;9.68;2.97;;;26.80;46.80;;;;;;3515901;40;20090;-80
2021/06/14 17:54:07;;;;;;;9.10;2.72;;;26.60;47.60;;;;;;3520447;40;20078;-80
2021/06/14 17:56:36;;;;;;;7.35;2.42;;;26.50;48.10;;;;;;3529342;40;20091;-79
2021/06/14 17:59:04;;;;;;;14.82;3.17;;;26.40;48.30;;;;;;3523434;40;20079;-80
2021/06/14 18:01:33;;;;;;;;;;;26.50;48.50;;;;;;3525170;40;20071;-80
2021/06/14 18:04:02;;;;;;;6.43;2.40;;;26.40;48.50;;;;;;3521746;40;19971;-80
2021/06/14 18:06:30;;;;;;;8.30;2.10;;;26.50;48.60;;;;;;3531756;40;20067;-77
2021/06/14 18:08:57;;;;;;;9.60;2.30;;;26.50;48.30;;;;;;3523365;40;20416;-80
2021/06/14 18:11:26;;;;;;;8.63;2.40;;;26.40;48.40;;;;;;3532284;40;20083;-80
2021/06/14 18:13:54;;;;;;;8.10;2.30;;;26.40;48.50;;;;;;3523659;40;20096;-79
2021/06/14 18:16:24;;;;;;;8.38;2.53;;;26.40;48.60;;;;;;3533523;40;20075;-79
2021/06/14 18:18:52;;;;;;;7.95;2.25;;;26.30;49.00;;;;;;3521425;40;20079;-80
2021/06/14 18:21:21;;;;;;;5.93;2.05;;;26.20;49.10;;;;;;3528838;40;20072;-82
2021/06/14 18:23:54;;;;;;;7.82;2.45;;;26.20;49.30;;;;;;3525073;40;20403;-79
2021/06/14 18:26:22;;;;;;;6.75;2.60;;;26.20;49.60;;;;;;3521652;40;20091;-80
2021/06/14 18:28:50;;;;;;;8.20;2.35;;;26.10;49.70;;;;;;3524213;40;20271;-79
2021/06/14 18:31:19;;;;;;;6.00;1.98;;;26.00;49.90;;;;;;3522870;40;20071;-80
2021/06/14 18:33:47;;;;;;;5.53;2.40;;;25.90;50.10;;;;;;3516558;40;20095;-80
2021/06/14 18:36:18;;;;;;;7.28;2.33;;;25.80;50.40;;;;;;3525863;40;20087;-80
2021/06/14 18:38:47;;;;;;;8.07;2.17;;;25.70;50.70;;;;;;3531229;40;20087;-79
2021/06/14 18:41:20;;;;;;;5.40;2.35;;;25.60;50.80;;;;;;3524846;40;20056;-79
2021/06/14 18:43:50;;;;;;;9.55;2.92;;;25.50;51.30;;;;;;3524342;40;20063;-78
2021/06/14 18:46:23;;;;;;;9.13;2.78;;;25.40;51.70;;;;;;3517263;40;20071;-78
2021/06/14 18:48:51;;;;;;;5.00;2.22;;;25.40;51.80;;;;;;3524459;40;20075;-79
2021/06/14 18:51:20;;;;;;;6.25;2.55;;;25.30;52.20;;;;;;3522770;40;20087;-79
2021/06/14 18:53:54;;;;;;;6.93;2.70;;;25.10;52.70;;;;;;3531155;40;20403;-80
2021/06/14 18:56:24;;;;;;;7.97;2.38;;;25.00;53.70;;;;;;3525914;40;20090;-79
2021/06/14 18:58:56;;;;;;;8.52;2.80;;;24.90;53.50;;;;;;3521699;40;20098;-80
2021/06/14 19:01:26;;;;;;;8.63;3.25;;;24.80;54.00;;;;;;3522377;40;20076;-79
2021/06/14 19:03:59;;;;;;;11.45;2.58;;;24.70;54.40;;;;;;3529201;40;20066;-79
2021/06/14 19:06:28;;;;;;;5.63;2.58;;;24.60;54.70;;;;;;3530828;40;20071;-79
2021/06/14 19:09:03;;;;;;;8.00;2.60;;;24.50;55.20;;;;;;3528861;40;20072;-78
2021/06/14 19:11:32;;;;;;;5.82;2.58;;;24.30;55.60;;;;;;3529632;40;20142;-80
2021/06/14 19:14:01;;;;;;;8.43;2.80;;;24.20;56.00;;;;;;3514995;40;20079;-78
2021/06/14 19:16:32;;;;;;;7.70;3.38;;;24.10;56.70;;;;;;3530052;40;20087;-81
2021/06/14 19:19:03;;;;;;;7.93;2.70;;;24.10;57.40;;;;;;3522340;40;20072;-79
2021/06/14 19:21:32;;;;;;;9.10;3.08;;;23.90;57.60;;;;;;3514714;40;20075;-80
2021/06/14 19:24:07;;;;;;;6.15;2.90;;;23.90;57.90;;;;;;3521291;40;20295;-79
2021/06/14 19:26:35;;;;;;;7.43;3.00;;;23.80;58.00;;;;;;3529561;40;20297;-78
2021/06/14 19:29:07;;;;;;;6.85;2.83;;;23.90;57.80;;;;;;3506136;40;20079;-79
2021/06/14 19:31:40;;;;;;;7.78;3.13;;;23.70;58.30;;;;;;3528913;40;20090;-82
2021/06/14 19:34:08;;;;;;;7.85;3.10;;;23.50;59.10;;;;;;3524266;40;20142;-79
2021/06/14 19:36:38;;;;;;;8.38;3.30;;;23.40;59.40;;;;;;3522084;40;20171;-79
2021/06/14 19:39:11;;;;;;;5.47;2.95;;;23.30;59.80;;;;;;3529729;40;20067;-80
2021/06/14 19:41:39;;;;;;;5.40;2.97;;;23.20;60.20;;;;;;3521103;40;20121;-80
2021/06/14 19:44:07;;;;;;;6.03;2.83;;;23.10;60.60;;;;;;3529637;40;20087;-79
2021/06/14 19:46:36;;;;;;;7.10;3.47;;;23.00;61.20;;;;;;3505449;40;20067;-79
2021/06/14 19:49:04;;;;;;;7.97;3.03;;;22.90;61.80;;;;;;3530702;40;20091;-81
2021/06/14 19:51:34;;;;;;;16.38;5.07;;;22.80;62.00;;;;;;3530333;40;20332;-79
2021/06/14 19:54:22;;;;;;;7.45;3.25;;;22.80;62.40;;;;;;3513465;40;20091;-82
2021/06/14 19:56:55;;;;;;;9.13;3.03;;;22.70;62.60;;;;;;3513380;40;20094;-80
2021/06/14 19:59:26;;;;;;;10.70;2.90;;;22.70;62.40;;;;;;3514188;40;20150;-81
2021/06/14 20:01:55;;;;;;;8.88;3.78;;;22.60;62.40;;;;;;3525099;40;20090;-81
2021/06/14 20:04:23;;;;;;;7.35;3.05;;;22.70;62.50;;;;;;3531271;40;20333;-81
2021/06/14 20:06:51;;;;;;;12.57;2.97;;;22.50;63.30;;;;;;3524932;40;20103;-81
2021/06/14 20:09:22;;;;;;;6.82;3.22;;;22.40;63.70;;;;;;3526865;40;20091;-82
2021/06/14 20:11:52;;;;;;;6.18;3.20;;;22.40;64.10;;;;;;3523508;40;20115;-82
2021/06/14 20:14:26;;;;;;;8.82;3.05;;;22.40;64.20;;;;;;3530525;40;20114;-79
2021/06/14 20:16:56;;;;;;;7.78;3.58;;;22.30;64.60;;;;;;3528789;40;20128;-82
2021/06/14 20:19:26;;;;;;;7.13;3.78;;;22.20;65.40;;;;;;3512063;40;20068;-80
2021/06/14 20:21:56;;;;;;;9.27;3.15;;;22.10;66.10;;;;;;3520116;40;20083;-80
2021/06/14 20:24:27;;;;;;;7.55;3.63;;;22.10;66.60;;;;;;3531061;40;20097;-81
2021/06/14 20:26:55;;;;;;;8.77;4.30;;;22.00;66.90;;;;;;3528588;40;20087;-80
2021/06/14 20:29:23;;;;;;;8.00;5.03;;;21.90;67.10;;;;;;3530451;40;20067;-81
2021/06/14 20:31:51;;;;;;;9.48;4.15;;;21.90;67.30;;;;;;3521500;40;20144;-82
2021/06/14 20:34:21;;;;;;;8.82;3.40;;;21.90;67.50;;;;;;3528506;40;20091;-80
2021/06/14 20:36:49;;;;;;;15.90;4.35;;;21.90;67.90;;;;;;3511734;40;20072;-80
2021/06/14 20:39:18;;;;;;;12.57;4.45;;;21.80;68.20;;;;;;3505541;40;20095;-81